Time;durP1;ratioP1;P1;durP2;ratioP2;P2;SDS_P1;SDS_P2;PMS_P1;PMS_P2;Temp;Humidity;BMP_temperature;BMP_pressure;BME280_temperature;BME280_humidity;BME280_pressure;Samples;Min_cycle;Max_cycle;Signal;HPM_P1;HPM_P2
2023/03/30 00:00:37;;;;;;;13.43;8.77;;;;;;;;;;5006381;28;20100;-77
2023/03/30 00:03:03;;;;;;;17.38;8.98;;;;;;;;;;5000576;28;20036;-76
2023/03/30 00:05:31;;;;;;;11.32;8.70;;;;;;;;;;5011760;28;20055;-75
2023/03/30 00:07:57;;;;;;;12.50;8.75;;;;;;;;;;4996239;28;20114;-76
2023/03/30 00:10:23;;;;;;;14.38;8.73;;;;;;;;;;5007197;28;20115;-76
2023/03/30 00:12:50;;;;;;;13.50;9.57;;;;;;;;;;5049470;28;20056;-76
2023/03/30 00:15:17;;;;;;;12.93;8.35;;;;;;;;;;5001069;28;20029;-77
2023/03/30 00:17:43;;;;;;;18.48;9.23;;;;;;;;;;4987047;28;20026;-76
2023/03/30 00:20:13;;;;;;;14.45;8.77;;;;;;;;;;5010157;28;20018;-76
2023/03/30 00:22:42;;;;;;;14.27;8.18;;;;;;;;;;4996609;28;20029;-76
2023/03/30 00:25:10;;;;;;;13.65;9.07;;;;;;;;;;4993332;28;20027;-78
2023/03/30 00:27:36;;;;;;;13.55;8.93;;;;;;;;;;4997606;28;20456;-76
2023/03/30 00:30:06;;;;;;;12.75;8.55;;;;;;;;;;5007610;28;20480;-77
2023/03/30 00:32:33;;;;;;;14.77;9.80;;;;;;;;;;5006674;28;20034;-77
2023/03/30 00:35:00;;;;;;;11.63;8.10;;;;;;;;;;4999540;28;20028;-77
2023/03/30 00:37:26;;;;;;;17.58;9.38;;;;;;;;;;4992787;28;20461;-77
2023/03/30 00:39:53;;;;;;;12.65;8.23;;;;;;;;;;4996111;28;20549;-77
2023/03/30 00:42:20;;;;;;;13.95;9.57;;;;;;;;;;5009551;28;20112;-77
2023/03/30 00:45:10;;;;;;;12.70;8.38;;;;;;;;;;5003836;28;20035;-77
2023/03/30 00:47:38;;;;;;;15.68;9.55;;;;;;;;;;5003576;28;20034;-77
2023/03/30 00:50:06;;;;;;;16.95;9.20;;;;;;;;;;4994804;28;20492;-77
2023/03/30 00:52:36;;;;;;;13.88;8.73;;;;;;;;;;5004579;28;20042;-79
2023/03/30 00:55:03;;;;;;;17.05;9.13;;;;;;;;;;5020702;28;20038;-79
2023/03/30 00:57:31;;;;;;;14.00;8.18;;;;;;;;;;5022421;28;20460;-77
2023/03/30 00:59:57;;;;;;;14.05;8.27;;;;;;;;;;4998738;28;20025;-76
2023/03/30 01:02:23;;;;;;;15.25;9.25;;;;;;;;;;5010003;28;20332;-76
2023/03/30 01:04:51;;;;;;;14.60;8.43;;;;;;;;;;5003345;28;20030;-76
2023/03/30 01:07:18;;;;;;;14.63;8.55;;;;;;;;;;5000386;28;20443;-76
2023/03/30 01:09:44;;;;;;;16.25;9.35;;;;;;;;;;5010755;28;20038;-76
2023/03/30 01:12:10;;;;;;;11.60;8.80;;;;;;;;;;4994143;28;20022;-76
2023/03/30 01:14:37;;;;;;;11.23;8.73;;;;;;;;;;5005633;28;20022;-78
2023/03/30 01:17:12;;;;;;;13.00;9.27;;;;;;;;;;4998589;28;20132;-82
2023/03/30 01:19:47;;;;;;;15.98;8.90;;;;;;;;;;5010230;28;20026;-76
2023/03/30 01:22:33;;;;;;;16.70;9.90;;;;;;;;;;4993885;28;20054;-77
2023/03/30 01:25:05;;;;;;;13.27;8.73;;;;;;;;;;5002590;28;20049;-77
2023/03/30 01:27:50;;;;;;;12.90;9.60;;;;;;;;;;5002302;28;20022;-77
2023/03/30 01:30:35;;;;;;;13.35;9.50;;;;;;;;;;4990738;28;20041;-78
2023/03/30 01:33:19;;;;;;;15.02;9.82;;;;;;;;;;4999240;28;20388;-77
2023/03/30 01:35:56;;;;;;;12.98;9.30;;;;;;;;;;5010710;28;20029;-77
2023/03/30 01:38:28;;;;;;;12.18;9.45;;;;;;;;;;4993607;28;20429;-78
2023/03/30 01:41:03;;;;;;;11.95;8.85;;;;;;;;;;5003268;28;20421;-79
2023/03/30 01:43:32;;;;;;;13.98;9.38;;;;;;;;;;5002884;28;20356;-76
2023/03/30 01:46:12;;;;;;;13.30;9.30;;;;;;;;;;5010389;28;20026;-79
2023/03/30 01:48:44;;;;;;;15.70;9.77;;;;;;;;;;4994954;28;20034;-76
2023/03/30 01:51:12;;;;;;;14.13;8.90;;;;;;;;;;5010876;28;20014;-76
2023/03/30 01:53:48;;;;;;;14.90;9.90;;;;;;;;;;4998176;28;20400;-75
2023/03/30 01:56:14;;;;;;;14.15;9.10;;;;;;;;;;4974866;28;20105;-76
2023/03/30 01:58:46;;;;;;;15.43;10.30;;;;;;;;;;5009623;28;20575;-76
2023/03/30 02:01:13;;;;;;;15.35;10.38;;;;;;;;;;5000939;28;20102;-77
2023/03/30 02:03:41;;;;;;;14.63;10.15;;;;;;;;;;5003739;28;20079;-77
2023/03/30 02:06:26;;;;;;;15.20;10.65;;;;;;;;;;5009398;28;20064;-77
2023/03/30 02:08:53;;;;;;;16.45;11.95;;;;;;;;;;4996208;28;20026;-74
2023/03/30 02:11:19;;;;;;;15.35;10.90;;;;;;;;;;4991967;28;20053;-76
2023/03/30 02:13:46;;;;;;;15.82;11.43;;;;;;;;;;4995373;28;20130;-76
2023/03/30 02:16:15;;;;;;;16.13;11.82;;;;;;;;;;5075610;28;20023;-77
2023/03/30 02:18:41;;;;;;;18.20;12.00;;;;;;;;;;5003592;28;20035;-76
2023/03/30 02:21:07;;;;;;;18.50;12.02;;;;;;;;;;4999080;28;20034;-77
2023/03/30 02:23:38;;;;;;;20.00;11.65;;;;;;;;;;5009226;28;20078;-75
2023/03/30 02:26:06;;;;;;;17.30;12.40;;;;;;;;;;4993491;28;20109;-78
2023/03/30 02:28:32;;;;;;;20.23;12.95;;;;;;;;;;5003992;28;20057;-76
2023/03/30 02:30:58;;;;;;;18.80;11.95;;;;;;;;;;4997351;28;20026;-76
2023/03/30 02:33:29;;;;;;;20.85;13.10;;;;;;;;;;5010415;28;20391;-76
2023/03/30 02:36:09;;;;;;;17.60;12.75;;;;;;;;;;4993776;28;20113;-76
2023/03/30 02:38:38;;;;;;;24.92;12.57;;;;;;;;;;4989268;28;20026;-77
2023/03/30 02:41:10;;;;;;;20.65;13.07;;;;;;;;;;4997898;28;20487;-76
2023/03/30 02:44:15;;;;;;;16.90;13.40;;;;;;;;;;4979018;28;20034;-77
2023/03/30 02:46:41;;;;;;;20.83;14.15;;;;;;;;;;4937496;28;20025;-76
2023/03/30 02:49:07;;;;;;;23.25;15.20;;;;;;;;;;4964044;28;20114;-77
2023/03/30 02:51:36;;;;;;;26.77;16.00;;;;;;;;;;5011320;28;20130;-74
2023/03/30 02:54:11;;;;;;;24.45;14.70;;;;;;;;;;5022861;28;20092;-76
2023/03/30 02:56:42;;;;;;;26.88;15.82;;;;;;;;;;4993903;28;20612;-79
2023/03/30 02:59:11;;;;;;;23.25;15.55;;;;;;;;;;4990643;28;20113;-79
2023/03/30 03:01:47;;;;;;;24.73;16.65;;;;;;;;;;5008744;28;20022;-76
2023/03/30 03:04:14;;;;;;;25.67;16.75;;;;;;;;;;4989815;28;20021;-77
2023/03/30 03:06:41;;;;;;;24.55;16.80;;;;;;;;;;4994245;28;20478;-76
2023/03/30 03:09:08;;;;;;;25.13;16.45;;;;;;;;;;5007982;28;20505;-76
2023/03/30 03:11:34;;;;;;;23.48;16.67;;;;;;;;;;4996538;28;20026;-76
2023/03/30 03:14:00;;;;;;;24.40;17.98;;;;;;;;;;4987530;28;20025;-75
2023/03/30 03:16:26;;;;;;;26.17;16.85;;;;;;;;;;4990588;28;20021;-76
2023/03/30 03:18:52;;;;;;;26.85;18.65;;;;;;;;;;5001272;28;20109;-76
2023/03/30 03:21:18;;;;;;;29.13;19.05;;;;;;;;;;4999876;28;20029;-76
2023/03/30 03:23:47;;;;;;;29.73;19.55;;;;;;;;;;5008616;28;20030;-76
2023/03/30 03:26:13;;;;;;;27.98;19.70;;;;;;;;;;4992303;28;20065;-79
2023/03/30 03:28:39;;;;;;;28.27;19.17;;;;;;;;;;4984361;28;20500;-78
2023/03/30 03:31:05;;;;;;;30.55;20.15;;;;;;;;;;4997117;28;20033;-77
2023/03/30 03:33:31;;;;;;;27.83;19.42;;;;;;;;;;5008297;28;20036;-77
2023/03/30 03:35:59;;;;;;;28.98;20.00;;;;;;;;;;5008352;28;20494;-78
2023/03/30 03:38:26;;;;;;;25.98;19.40;;;;;;;;;;5004046;28;20105;-75
2023/03/30 03:40:52;;;;;;;25.50;18.75;;;;;;;;;;4995484;28;20037;-76
2023/03/30 03:43:18;;;;;;;30.85;20.30;;;;;;;;;;5008330;28;20113;-75
2023/03/30 03:45:45;;;;;;;25.73;18.42;;;;;;;;;;4994162;28;20387;-75
2023/03/30 03:48:11;;;;;;;26.48;18.90;;;;;;;;;;5005440;28;20041;-76
2023/03/30 03:50:37;;;;;;;27.15;18.85;;;;;;;;;;5003111;28;20500;-77
2023/03/30 03:53:03;;;;;;;28.30;18.77;;;;;;;;;;4997141;28;20025;-77
2023/03/30 03:55:33;;;;;;;27.83;19.58;;;;;;;;;;5008168;28;20029;-77
2023/03/30 03:57:59;;;;;;;28.02;19.70;;;;;;;;;;4991563;28;20034;-77
2023/03/30 04:00:25;;;;;;;32.58;18.80;;;;;;;;;;5004443;28;20480;-76
2023/03/30 04:02:51;;;;;;;29.63;19.40;;;;;;;;;;4995542;28;20034;-76
2023/03/30 04:05:17;;;;;;;31.90;19.38;;;;;;;;;;4990634;28;20032;-75
2023/03/30 04:07:45;;;;;;;29.23;19.25;;;;;;;;;;4994010;28;20381;-77
2023/03/30 04:10:11;;;;;;;25.67;19.05;;;;;;;;;;5006170;28;20054;-76
2023/03/30 04:12:37;;;;;;;29.48;18.85;;;;;;;;;;4985182;28;20031;-79
2023/03/30 04:15:04;;;;;;;25.95;18.35;;;;;;;;;;4995794;28;20033;-74
2023/03/30 04:17:32;;;;;;;24.42;17.85;;;;;;;;;;4995265;28;20057;-77
2023/03/30 04:20:04;;;;;;;28.27;18.58;;;;;;;;;;5004121;28;20075;-77
2023/03/30 04:22:32;;;;;;;25.10;18.35;;;;;;;;;;5007712;28;20113;-77
2023/03/30 04:24:59;;;;;;;27.33;19.77;;;;;;;;;;5000033;28;20026;-77
2023/03/30 04:27:27;;;;;;;26.42;19.10;;;;;;;;;;4998623;28;20035;-77
2023/03/30 04:29:56;;;;;;;30.60;19.95;;;;;;;;;;5007489;28;20079;-77
2023/03/30 04:32:22;;;;;;;26.48;19.45;;;;;;;;;;4991472;28;20407;-77
2023/03/30 04:34:53;;;;;;;29.63;19.10;;;;;;;;;;5001302;28;20461;-77
2023/03/30 04:37:22;;;;;;;26.85;19.98;;;;;;;;;;4997937;28;20037;-78
2023/03/30 04:39:49;;;;;;;26.27;18.80;;;;;;;;;;5008430;28;20501;-78
2023/03/30 04:42:18;;;;;;;27.35;19.60;;;;;;;;;;4994500;28;20037;-80
2023/03/30 04:44:45;;;;;;;30.52;19.33;;;;;;;;;;5005055;28;20453;-77
2023/03/30 04:47:11;;;;;;;27.33;19.38;;;;;;;;;;5000163;28;20029;-77
2023/03/30 04:49:37;;;;;;;33.60;19.67;;;;;;;;;;5011227;28;20117;-76
2023/03/30 04:52:03;;;;;;;28.30;18.38;;;;;;;;;;4995018;28;20101;-77
2023/03/30 04:54:29;;;;;;;29.45;19.23;;;;;;;;;;5006686;28;20399;-75
2023/03/30 04:56:55;;;;;;;26.45;19.17;;;;;;;;;;4998658;28;20026;-76
2023/03/30 04:59:21;;;;;;;26.15;17.33;;;;;;;;;;5009726;28;20025;-76
2023/03/30 05:01:47;;;;;;;26.10;18.48;;;;;;;;;;4978972;28;20057;-77
2023/03/30 05:04:13;;;;;;;26.20;17.95;;;;;;;;;;5008804;28;20038;-77
2023/03/30 05:06:39;;;;;;;26.58;18.35;;;;;;;;;;4991980;28;20033;-76
2023/03/30 05:09:05;;;;;;;28.52;19.52;;;;;;;;;;5009347;28;20105;-77
2023/03/30 05:11:31;;;;;;;27.67;18.60;;;;;;;;;;4997960;28;20032;-74
2023/03/30 05:13:57;;;;;;;28.17;17.90;;;;;;;;;;4995982;28;20402;-76
2023/03/30 05:16:22;;;;;;;23.88;17.95;;;;;;;;;;5008805;28;20018;-77
2023/03/30 05:18:48;;;;;;;24.40;17.13;;;;;;;;;;5003298;28;20032;-75
2023/03/30 05:21:15;;;;;;;24.02;18.17;;;;;;;;;;5001104;28;20342;-76
2023/03/30 05:23:41;;;;;;;25.75;18.58;;;;;;;;;;5009931;28;20038;-76
2023/03/30 05:26:07;;;;;;;28.42;19.42;;;;;;;;;;5008803;28;20054;-77
2023/03/30 05:28:34;;;;;;;27.27;19.05;;;;;;;;;;5005291;28;20113;-76
2023/03/30 05:31:00;;;;;;;23.65;17.83;;;;;;;;;;4998849;28;20446;-76
2023/03/30 05:33:26;;;;;;;23.50;17.13;;;;;;;;;;5011797;28;20034;-76
2023/03/30 05:35:52;;;;;;;25.48;17.95;;;;;;;;;;5010479;28;20037;-79
2023/03/30 05:38:18;;;;;;;27.38;18.25;;;;;;;;;;4992651;28;20038;-76
2023/03/30 05:40:44;;;;;;;24.90;17.48;;;;;;;;;;5004310;28;20062;-76
2023/03/30 05:43:10;;;;;;;25.33;18.83;;;;;;;;;;4981899;28;20034;-77
2023/03/30 05:45:36;;;;;;;25.55;17.70;;;;;;;;;;4998229;28;20034;-76
2023/03/30 05:48:05;;;;;;;23.92;18.60;;;;;;;;;;4991344;28;20031;-78
2023/03/30 05:50:31;;;;;;;23.05;17.23;;;;;;;;;;5010339;28;20026;-78
2023/03/30 05:52:57;;;;;;;24.48;17.13;;;;;;;;;;4985306;28;20083;-79
2023/03/30 05:55:23;;;;;;;25.92;17.10;;;;;;;;;;4994677;28;20061;-76
2023/03/30 05:57:49;;;;;;;24.98;18.00;;;;;;;;;;4986748;28;20049;-77
2023/03/30 06:00:15;;;;;;;23.45;16.83;;;;;;;;;;4975989;28;20028;-78
2023/03/30 06:02:41;;;;;;;23.70;16.13;;;;;;;;;;5004266;28;20032;-78
2023/03/30 06:05:07;;;;;;;23.02;16.80;;;;;;;;;;4981470;28;20022;-80
2023/03/30 06:07:33;;;;;;;26.42;15.52;;;;;;;;;;4996835;28;20511;-78
2023/03/30 06:10:00;;;;;;;20.85;16.17;;;;;;;;;;5002372;28;20396;-76
2023/03/30 06:12:26;;;;;;;23.65;15.43;;;;;;;;;;5006286;28;20019;-77
2023/03/30 06:14:52;;;;;;;23.27;14.23;;;;;;;;;;5004807;28;20015;-77
2023/03/30 06:17:18;;;;;;;20.17;14.43;;;;;;;;;;5026252;28;20056;-80
2023/03/30 06:19:44;;;;;;;17.85;13.60;;;;;;;;;;5013517;28;20597;-76
2023/03/30 06:22:10;;;;;;;18.40;12.63;;;;;;;;;;5003977;28;20030;-77
2023/03/30 06:24:36;;;;;;;18.17;13.30;;;;;;;;;;4994579;28;20364;-77
2023/03/30 06:27:02;;;;;;;18.08;12.75;;;;;;;;;;4991591;28;20041;-76
2023/03/30 06:29:29;;;;;;;20.75;12.98;;;;;;;;;;5009396;28;20030;-77
2023/03/30 06:31:55;;;;;;;18.35;11.52;;;;;;;;;;4994028;28;20027;-76
2023/03/30 06:34:21;;;;;;;19.25;10.95;;;;;;;;;;5008429;28;20661;-77
2023/03/30 06:36:48;;;;;;;17.98;12.52;;;;;;;;;;5002904;28;20033;-76
2023/03/30 06:39:15;;;;;;;20.80;12.93;;;;;;;;;;4998799;28;20026;-76
2023/03/30 06:41:41;;;;;;;21.30;13.88;;;;;;;;;;5009346;28;20438;-78
2023/03/30 06:44:09;;;;;;;18.23;12.35;;;;;;;;;;4992817;28;20087;-76
2023/03/30 06:46:35;;;;;;;17.65;12.25;;;;;;;;;;5004559;28;20026;-77
2023/03/30 06:49:01;;;;;;;22.73;13.82;;;;;;;;;;4996973;28;20153;-77
2023/03/30 06:51:28;;;;;;;15.48;12.07;;;;;;;;;;4991872;28;20437;-77
2023/03/30 06:53:54;;;;;;;16.88;12.85;;;;;;;;;;4994216;28;20380;-77
2023/03/30 06:56:20;;;;;;;15.55;11.88;;;;;;;;;;5008651;28;20026;-77
2023/03/30 06:58:46;;;;;;;13.75;11.05;;;;;;;;;;5009338;28;20022;-77
2023/03/30 07:01:13;;;;;;;17.33;10.43;;;;;;;;;;5009981;28;20392;-76
2023/03/30 07:03:40;;;;;;;15.57;10.88;;;;;;;;;;5009671;28;20404;-76
2023/03/30 07:06:06;;;;;;;24.30;11.70;;;;;;;;;;5009775;28;20081;-77
2023/03/30 07:08:33;;;;;;;18.55;11.02;;;;;;;;;;4994674;28;20502;-76
2023/03/30 07:10:59;;;;;;;19.42;9.73;;;;;;;;;;5010296;28;20026;-76
2023/03/30 07:13:25;;;;;;;16.63;10.13;;;;;;;;;;4998160;28;20030;-76
2023/03/30 07:15:51;;;;;;;14.30;8.02;;;;;;;;;;5004410;28;20025;-77
2023/03/30 07:18:17;;;;;;;14.90;7.97;;;;;;;;;;5006958;28;20030;-76
2023/03/30 07:20:44;;;;;;;12.45;6.28;;;;;;;;;;4995421;28;20461;-77
2023/03/30 07:23:11;;;;;;;7.05;3.95;;;;;;;;;;5012487;28;20539;-80
2023/03/30 07:25:37;;;;;;;13.93;3.03;;;;;;;;;;4999672;28;20053;-78
2023/03/30 07:28:05;;;;;;;11.52;4.20;;;;;;;;;;5007078;28;20038;-77
2023/03/30 07:30:31;;;;;;;11.25;2.67;;;;;;;;;;5005645;28;20048;-76
2023/03/30 07:32:57;;;;;;;7.90;2.55;;;;;;;;;;4990073;28;20146;-76
2023/03/30 07:35:23;;;;;;;10.73;2.85;;;;;;;;;;4999311;28;20045;-73
2023/03/30 07:37:49;;;;;;;8.73;2.28;;;;;;;;;;4992905;28;20094;-76
2023/03/30 07:40:16;;;;;;;9.30;2.30;;;;;;;;;;5006745;28;20026;-76
2023/03/30 07:42:42;;;;;;;8.85;2.80;;;;;;;;;;5001325;28;20022;-79
2023/03/30 07:45:08;;;;;;;12.18;3.45;;;;;;;;;;4994635;28;20427;-77
2023/03/30 07:47:35;;;;;;;10.73;2.58;;;;;;;;;;4986633;28;20361;-77
2023/03/30 07:50:01;;;;;;;8.90;2.92;;;;;;;;;;4988477;28;20486;-78
2023/03/30 07:52:27;;;;;;;7.15;4.47;;;;;;;;;;5004579;28;20026;-76
2023/03/30 07:54:53;;;;;;;15.55;3.60;;;;;;;;;;4998082;28;20028;-79
2023/03/30 07:57:19;;;;;;;6.80;2.75;;;;;;;;;;4985248;28;20026;-77
2023/03/30 07:59:46;;;;;;;4.90;2.10;;;;;;;;;;4984907;28;20025;-77
2023/03/30 08:02:13;;;;;;;7.05;2.50;;;;;;;;;;4991846;28;20083;-76
2023/03/30 08:04:40;;;;;;;9.15;3.10;;;;;;;;;;5004411;28;20516;-77
2023/03/30 08:07:06;;;;;;;11.05;2.65;;;;;;;;;;4998008;28;20032;-79
2023/03/30 08:09:32;;;;;;;8.02;2.30;;;;;;;;;;5007650;28;20026;-76
2023/03/30 08:11:58;;;;;;;4.90;1.70;;;;;;;;;;4992383;28;20075;-76
2023/03/30 08:14:26;;;;;;;12.77;2.80;;;;;;;;;;5008684;28;20086;-77
2023/03/30 08:16:52;;;;;;;8.73;3.03;;;;;;;;;;5011314;28;20014;-79
2023/03/30 08:19:18;;;;;;;7.00;2.58;;;;;;;;;;5000988;28;20030;-75
2023/03/30 08:21:44;;;;;;;15.68;3.38;;;;;;;;;;5005418;28;20030;-76
2023/03/30 08:24:10;;;;;;;7.88;2.13;;;;;;;;;;5009993;28;20026;-76
2023/03/30 08:26:37;;;;;;;10.23;2.47;;;;;;;;;;4978691;28;20030;-76
2023/03/30 08:29:03;;;;;;;12.13;6.10;;;;;;;;;;5010308;28;20057;-76
2023/03/30 08:31:33;;;;;;;18.75;8.18;;;;;;;;;;4998932;28;20015;-76
2023/03/30 08:33:59;;;;;;;15.27;10.27;;;;;;;;;;4989888;28;20033;-75
2023/03/30 08:36:25;;;;;;;15.23;11.15;;;;;;;;;;4994585;28;20380;-77
2023/03/30 08:38:53;;;;;;;22.13;11.70;;;;;;;;;;5003643;28;20194;-76
2023/03/30 08:41:26;;;;;;;15.00;10.70;;;;;;;;;;4991638;28;20034;-79
2023/03/30 08:43:52;;;;;;;21.65;9.98;;;;;;;;;;4988572;28;20029;-76
2023/03/30 08:46:18;;;;;;;16.67;10.00;;;;;;;;;;5008435;28;20121;-77
2023/03/30 08:48:45;;;;;;;23.02;11.13;;;;;;;;;;4996862;28;20364;-76
2023/03/30 08:51:18;;;;;;;17.85;10.60;;;;;;;;;;4992849;28;20452;-76
2023/03/30 08:53:44;;;;;;;15.23;10.48;;;;;;;;;;4996664;28;20101;-76
2023/03/30 08:56:14;;;;;;;18.40;11.38;;;;;;;;;;5008192;28;20022;-76
2023/03/30 08:58:59;;;;;;;18.50;11.48;;;;;;;;;;5004663;28;20407;-76
2023/03/30 09:01:33;;;;;;;19.17;11.70;;;;;;;;;;5002577;28;20030;-76
2023/03/30 09:04:18;;;;;;;18.33;11.48;;;;;;;;;;5010638;28;20163;-76
2023/03/30 09:06:49;;;;;;;16.67;10.82;;;;;;;;;;4996650;28;20033;-75
2023/03/30 09:09:17;;;;;;;19.90;10.98;;;;;;;;;;4999778;28;20030;-76
2023/03/30 09:11:44;;;;;;;18.00;11.57;;;;;;;;;;5004996;28;20051;-76
2023/03/30 09:14:17;;;;;;;19.95;13.18;;;;;;;;;;5010248;28;20448;-76
2023/03/30 09:16:51;;;;;;;17.92;12.73;;;;;;;;;;5004384;28;20532;-76
2023/03/30 09:19:21;;;;;;;24.73;15.05;;;;;;;;;;5000314;28;20413;-77
2023/03/30 09:21:48;;;;;;;23.65;13.65;;;;;;;;;;5010307;28;20034;-77
2023/03/30 09:24:18;;;;;;;18.85;13.35;;;;;;;;;;4993813;28;20033;-79
2023/03/30 09:26:51;;;;;;;26.20;14.20;;;;;;;;;;5003548;28;20445;-78
2023/03/30 09:29:17;;;;;;;21.05;14.45;;;;;;;;;;4990043;28;20026;-78
2023/03/30 09:31:46;;;;;;;25.35;15.25;;;;;;;;;;5004285;28;20082;-76
2023/03/30 09:34:26;;;;;;;23.98;15.27;;;;;;;;;;5009106;28;20018;-76
2023/03/30 09:36:57;;;;;;;21.70;14.43;;;;;;;;;;4997414;28;20046;-77
2023/03/30 09:39:24;;;;;;;23.02;12.70;;;;;;;;;;5009578;28;20487;-79
2023/03/30 09:41:56;;;;;;;15.80;7.57;;;;;;;;;;4994990;28;20061;-76
2023/03/30 09:44:27;;;;;;;12.93;5.10;;;;;;;;;;4991431;28;20026;-76
2023/03/30 09:46:57;;;;;;;12.45;3.63;;;;;;;;;;5002906;28;20026;-77
2023/03/30 09:49:26;;;;;;;23.60;5.30;;;;;;;;;;4982948;28;20061;-76
2023/03/30 09:52:01;;;;;;;12.82;4.70;;;;;;;;;;4992104;28;20026;-77
2023/03/30 09:54:34;;;;;;;11.63;3.92;;;;;;;;;;4993387;28;20450;-76
2023/03/30 09:57:01;;;;;;;12.60;4.07;;;;;;;;;;4983744;28;20025;-77
2023/03/30 09:59:31;;;;;;;11.85;3.50;;;;;;;;;;5001326;28;20030;-77
2023/03/30 10:02:09;;;;;;;14.40;4.07;;;;;;;;;;5009655;28;20061;-74
2023/03/30 10:04:57;;;;;;;9.15;3.78;;;;;;;;;;4993121;28;20457;-74
2023/03/30 10:07:28;;;;;;;9.73;3.97;;;;;;;;;;4998161;28;20443;-76
2023/03/30 10:09:54;;;;;;;10.45;3.85;;;;;;;;;;5005486;28;20030;-79
2023/03/30 10:12:21;;;;;;;9.40;3.80;;;;;;;;;;5006526;28;20490;-77
2023/03/30 10:14:52;;;;;;;10.95;4.38;;;;;;;;;;4996079;28;20053;-76
2023/03/30 10:17:20;;;;;;;9.77;4.13;;;;;;;;;;5006596;28;20029;-75
2023/03/30 10:19:46;;;;;;;9.30;3.72;;;;;;;;;;4991441;28;20026;-76
2023/03/30 10:22:16;;;;;;;10.00;4.50;;;;;;;;;;4991364;28;20026;-76
2023/03/30 10:24:49;;;;;;;16.00;4.60;;;;;;;;;;5009070;28;20026;-77
2023/03/30 10:27:15;;;;;;;9.70;3.50;;;;;;;;;;4998569;28;20061;-75
2023/03/30 10:29:49;;;;;;;9.13;3.60;;;;;;;;;;5002870;28;20037;-76
2023/03/30 10:32:17;;;;;;;11.93;3.80;;;;;;;;;;5009018;28;20030;-77
2023/03/30 10:34:44;;;;;;;12.02;3.30;;;;;;;;;;5003524;28;20083;-76
2023/03/30 10:37:15;;;;;;;7.25;3.22;;;;;;;;;;4996714;28;20093;-78
2023/03/30 10:39:42;;;;;;;5.15;3.00;;;;;;;;;;5009034;28;20040;-75
2023/03/30 10:42:11;;;;;;;4.85;3.13;;;;;;;;;;4991715;28;20034;-76
2023/03/30 10:44:59;;;;;;;5.45;2.08;;;;;;;;;;4994023;28;20038;-76
2023/03/30 10:47:31;;;;;;;5.38;2.97;;;;;;;;;;5008170;28;20488;-77
2023/03/30 10:50:03;;;;;;;2.88;1.95;;;;;;;;;;4993242;28;20693;-76
2023/03/30 10:52:47;;;;;;;7.43;2.28;;;;;;;;;;4992180;28;20406;-77
2023/03/30 10:55:26;;;;;;;3.53;1.77;;;;;;;;;;5008527;28;20018;-78
2023/03/30 10:57:59;;;;;;;5.70;1.90;;;;;;;;;;4993088;28;20025;-77
2023/03/30 11:00:30;;;;;;;4.32;1.98;;;;;;;;;;5008461;28;20025;-77
2023/03/30 11:02:56;;;;;;;5.00;1.73;;;;;;;;;;5003130;28;20022;-80
2023/03/30 11:05:28;;;;;;;5.53;1.70;;;;;;;;;;5008445;28;20078;-77
2023/03/30 11:07:56;;;;;;;3.83;1.77;;;;;;;;;;5008503;28;20022;-80
2023/03/30 11:10:42;;;;;;;6.95;1.65;;;;;;;;;;4991588;28;20060;-77
2023/03/30 11:13:19;;;;;;;3.13;1.67;;;;;;;;;;4999015;28;20027;-77
2023/03/30 11:15:49;;;;;;;2.30;1.35;;;;;;;;;;4983918;28;20022;-78
2023/03/30 11:18:15;;;;;;;4.30;1.70;;;;;;;;;;5004204;28;20484;-75
2023/03/30 11:20:45;;;;;;;5.03;1.65;;;;;;;;;;4993918;28;20029;-73
2023/03/30 11:23:17;;;;;;;6.90;1.50;;;;;;;;;;5000396;28;20456;-76
2023/03/30 11:26:11;;;;;;;2.33;1.35;;;;;;;;;;4994838;28;20105;-76
2023/03/30 11:28:43;;;;;;;5.55;1.85;;;;;;;;;;4991659;28;20713;-75
2023/03/30 11:31:15;;;;;;;4.65;1.60;;;;;;;;;;5006854;28;20027;-77
2023/03/30 11:33:44;;;;;;;4.07;1.27;;;;;;;;;;5010466;28;20030;-73
2023/03/30 11:36:17;;;;;;;3.70;1.20;;;;;;;;;;5020213;28;20022;-76
2023/03/30 11:39:02;;;;;;;3.45;1.50;;;;;;;;;;4996602;28;20361;-74
2023/03/30 11:41:31;;;;;;;4.25;1.33;;;;;;;;;;4993527;28;20022;-76
2023/03/30 11:43:57;;;;;;;3.10;1.30;;;;;;;;;;5007253;28;20110;-75
2023/03/30 11:46:38;;;;;;;1.95;1.05;;;;;;;;;;5007401;28;20053;-75
2023/03/30 11:49:04;;;;;;;3.60;1.67;;;;;;;;;;4989885;28;20026;-75
2023/03/30 11:51:34;;;;;;;3.33;1.25;;;;;;;;;;5010191;28;20100;-75
2023/03/30 11:54:12;;;;;;;5.13;1.70;;;;;;;;;;5010793;28;20049;-76
2023/03/30 11:56:57;;;;;;;2.38;1.25;;;;;;;;;;4993398;28;20038;-75
2023/03/30 11:59:26;;;;;;;4.65;1.80;;;;;;;;;;5011474;28;20381;-76
2023/03/30 12:01:58;;;;;;;2.00;1.48;;;;;;;;;;5011842;28;20026;-76
2023/03/30 12:04:29;;;;;;;3.20;1.75;;;;;;;;;;5009689;28;20605;-76
2023/03/30 12:07:00;;;;;;;4.53;1.92;;;;;;;;;;4992447;28;20026;-76
2023/03/30 12:09:26;;;;;;;3.57;1.77;;;;;;;;;;4991785;28;20041;-75
2023/03/30 12:11:57;;;;;;;5.18;2.55;;;;;;;;;;5000998;28;20390;-77
2023/03/30 12:14:26;;;;;;;4.60;1.88;;;;;;;;;;5011524;28;20025;-76
2023/03/30 12:16:55;;;;;;;5.15;1.83;;;;;;;;;;5009951;28;20086;-76
2023/03/30 12:19:26;;;;;;;3.97;1.85;;;;;;;;;;5010953;28;20026;-77
2023/03/30 12:21:54;;;;;;;3.65;1.88;;;;;;;;;;5010418;28;20049;-77
2023/03/30 12:24:20;;;;;;;2.72;1.80;;;;;;;;;;5010533;28;20348;-77
2023/03/30 12:26:47;;;;;;;6.20;2.70;;;;;;;;;;5011197;28;20484;-77
2023/03/30 12:29:15;;;;;;;5.47;2.47;;;;;;;;;;5008361;28;20056;-77
2023/03/30 12:31:51;;;;;;;3.28;2.45;;;;;;;;;;4991573;28;20441;-75
2023/03/30 12:34:17;;;;;;;3.88;2.72;;;;;;;;;;5010473;28;20059;-76
2023/03/30 12:36:56;;;;;;;5.20;2.80;;;;;;;;;;5011620;28;20375;-76
2023/03/30 12:39:30;;;;;;;5.00;2.65;;;;;;;;;;4991338;28;20033;-77
2023/03/30 12:42:34;;;;;;;4.68;2.72;;;;;;;;;;5009953;28;20360;-75
2023/03/30 12:45:00;;;;;;;5.80;2.90;;;;;;;;;;4990718;28;20043;-76
2023/03/30 12:47:49;;;;;;;5.60;2.90;;;;;;;;;;4990176;28;20444;-79
2023/03/30 12:50:15;;;;;;;7.57;2.95;;;;;;;;;;4992950;28;20034;-73
2023/03/30 12:53:00;;;;;;;9.93;2.88;;;;;;;;;;4990353;28;20510;-73
2023/03/30 12:55:26;;;;;;;5.45;2.60;;;;;;;;;;4990975;28;20030;-75
2023/03/30 12:57:58;;;;;;;6.88;2.85;;;;;;;;;;4990370;28;20484;-78
2023/03/30 13:00:28;;;;;;;5.38;3.00;;;;;;;;;;4972898;28;20061;-73
2023/03/30 13:03:14;;;;;;;5.97;2.85;;;;;;;;;;4991661;28;20018;-75
2023/03/30 13:05:41;;;;;;;7.28;3.17;;;;;;;;;;4992112;28;20031;-75
2023/03/30 13:08:09;;;;;;;6.15;3.03;;;;;;;;;;4991402;28;20031;-76
2023/03/30 13:10:37;;;;;;;6.80;2.97;;;;;;;;;;4991604;28;20033;-73
2023/03/30 13:13:04;;;;;;;7.28;2.80;;;;;;;;;;4974326;28;20071;-75
2023/03/30 13:15:33;;;;;;;7.30;2.50;;;;;;;;;;4991851;28;20075;-74
2023/03/30 13:18:09;;;;;;;7.28;3.40;;;;;;;;;;4990895;28;20033;-74
2023/03/30 13:20:36;;;;;;;7.45;3.22;;;;;;;;;;4974136;28;20023;-76
2023/03/30 13:23:11;;;;;;;6.95;2.67;;;;;;;;;;4991762;28;20034;-75
2023/03/30 13:25:44;;;;;;;4.95;2.83;;;;;;;;;;4991959;28;20031;-73
2023/03/30 13:28:29;;;;;;;7.13;2.40;;;;;;;;;;4990504;28;20027;-74
2023/03/30 13:30:58;;;;;;;6.30;2.95;;;;;;;;;;4973453;28;20442;-75
2023/03/30 13:33:24;;;;;;;6.05;2.30;;;;;;;;;;4989139;28;20044;-75
2023/03/30 13:35:56;;;;;;;4.97;2.83;;;;;;;;;;4988664;28;20041;-75
2023/03/30 13:38:41;;;;;;;10.27;2.90;;;;;;;;;;4988055;28;20065;-77
2023/03/30 13:41:18;;;;;;;4.63;2.33;;;;;;;;;;4988938;28;20027;-75
2023/03/30 13:43:50;;;;;;;8.57;3.03;;;;;;;;;;4988948;28;20042;-76
2023/03/30 13:46:16;;;;;;;7.35;2.88;;;;;;;;;;4988510;28;20021;-74
2023/03/30 13:48:54;;;;;;;7.05;2.45;;;;;;;;;;4989088;28;20022;-75
2023/03/30 13:51:24;;;;;;;7.22;2.60;;;;;;;;;;4990157;28;20019;-75
2023/03/30 13:53:53;;;;;;;7.40;2.47;;;;;;;;;;4990440;28;20070;-76
2023/03/30 13:56:20;;;;;;;9.98;3.50;;;;;;;;;;4990206;28;20022;-72
2023/03/30 13:59:04;;;;;;;4.65;2.47;;;;;;;;;;4989248;28;20034;-75
2023/03/30 14:01:31;;;;;;;6.45;2.83;;;;;;;;;;4990406;28;20357;-75
2023/03/30 14:03:59;;;;;;;5.50;2.30;;;;;;;;;;4990065;28;20030;-75
2023/03/30 14:06:27;;;;;;;7.05;2.78;;;;;;;;;;4990066;28;20476;-75
2023/03/30 14:09:09;;;;;;;6.43;2.50;;;;;;;;;;4989628;28;20038;-74
2023/03/30 14:11:35;;;;;;;8.15;2.22;;;;;;;;;;4989829;28;20045;-74
2023/03/30 14:14:02;;;;;;;6.10;2.38;;;;;;;;;;4990154;28;20023;-73
2023/03/30 14:16:32;;;;;;;7.40;2.22;;;;;;;;;;4990013;28;20032;-75
2023/03/30 14:19:07;;;;;;;5.45;2.33;;;;;;;;;;4989551;28;20032;-74
2023/03/30 14:21:35;;;;;;;5.68;2.08;;;;;;;;;;4990006;28;20029;-75
2023/03/30 14:24:02;;;;;;;6.00;2.53;;;;;;;;;;4990438;28;20035;-76
2023/03/30 14:26:29;;;;;;;8.27;2.28;;;;;;;;;;4973240;28;20404;-76
2023/03/30 14:29:01;;;;;;;5.57;1.90;;;;;;;;;;4989589;28;20109;-76
2023/03/30 14:31:27;;;;;;;6.18;1.80;;;;;;;;;;4990209;28;20091;-75
2023/03/30 14:33:54;;;;;;;7.78;1.92;;;;;;;;;;4990215;28;20057;-76
2023/03/30 14:36:20;;;;;;;5.30;2.05;;;;;;;;;;4989697;28;20492;-76
2023/03/30 14:38:50;;;;;;;5.07;1.80;;;;;;;;;;4989279;28;20079;-75
2023/03/30 14:41:22;;;;;;;3.90;1.90;;;;;;;;;;4990851;28;20224;-75